Time;durP1;ratioP1;P1;durP2;ratioP2;P2;SDS_P1;SDS_P2;PMS_P1;PMS_P2;Temp;Humidity;BMP_temperature;BMP_pressure;BME280_temperature;BME280_humidity;BME280_pressure;Samples;Min_cycle;Max_cycle;Signal;HPM_P1;HPM_P2
2022/09/26 00:01:52;;;;;;;5.80;4.13;;;11.10;99.90;;;;;;951006;149;27273;-78
2022/09/26 00:04:18;;;;;;;7.00;4.13;;;11.00;99.90;;;;;;949699;149;27344;-78
2022/09/26 00:06:45;;;;;;;6.00;3.80;;;11.00;99.90;;;;;;952000;149;27363;-78
2022/09/26 00:09:11;;;;;;;4.30;3.87;;;11.00;99.90;;;;;;949178;149;27283;-78
2022/09/26 00:11:38;;;;;;;5.00;3.97;;;10.90;99.90;;;;;;950004;149;27413;-78
2022/09/26 00:14:08;;;;;;;5.23;3.93;;;10.90;99.90;;;;;;951753;149;27983;-78
2022/09/26 00:16:34;;;;;;;4.30;3.90;;;10.90;99.90;;;;;;950856;149;27362;-78
2022/09/26 00:19:01;;;;;;;4.63;4.13;;;10.80;99.90;;;;;;950281;149;27348;-78
2022/09/26 00:21:28;;;;;;;4.20;3.80;;;10.80;99.90;;;;;;950430;149;27271;-78
2022/09/26 00:23:54;;;;;;;6.17;4.20;;;10.70;99.90;;;;;;950943;149;27587;-78
2022/09/26 00:26:21;;;;;;;4.23;3.93;;;10.70;99.90;;;;;;950497;148;27469;-78
2022/09/26 00:28:47;;;;;;;5.87;3.90;;;10.70;99.90;;;;;;951605;149;27368;-78
2022/09/26 00:31:14;;;;;;;5.47;4.13;;;10.60;99.90;;;;;;950360;149;27405;-78
2022/09/26 00:33:41;;;;;;;5.10;3.77;;;10.60;99.90;;;;;;950528;149;27317;-78
2022/09/26 00:36:07;;;;;;;4.03;3.63;;;10.60;99.90;;;;;;951435;149;27377;-78
2022/09/26 00:38:34;;;;;;;4.77;4.03;;;10.50;99.90;;;;;;949715;148;27320;-78
2022/09/26 00:41:00;;;;;;;5.03;3.60;;;10.50;99.90;;;;;;951187;149;27299;-78
2022/09/26 00:43:33;;;;;;;6.17;3.97;;;10.50;99.90;;;;;;951998;149;27778;-78
2022/09/26 00:46:11;;;;;;;4.67;4.27;;;10.40;99.90;;;;;;950881;149;28140;-78
2022/09/26 00:48:38;;;;;;;4.63;3.83;;;10.40;99.90;;;;;;950177;149;27241;-78
2022/09/26 00:51:04;;;;;;;5.00;4.13;;;10.30;99.90;;;;;;952124;149;27285;-78
2022/09/26 00:53:31;;;;;;;4.53;3.67;;;10.30;99.90;;;;;;950869;149;27292;-78
2022/09/26 00:55:58;;;;;;;4.53;3.87;;;10.30;99.90;;;;;;961550;148;27370;-78
2022/09/26 00:58:24;;;;;;;4.10;3.70;;;10.20;99.90;;;;;;960759;148;27405;-78
2022/09/26 01:00:51;;;;;;;5.10;3.93;;;10.20;99.90;;;;;;962881;148;27315;-78
2022/09/26 01:03:17;;;;;;;6.73;4.30;;;10.10;99.90;;;;;;960230;148;27302;-78
2022/09/26 01:05:44;;;;;;;6.13;4.30;;;10.10;99.90;;;;;;961281;148;27431;-78
2022/09/26 01:08:10;;;;;;;4.80;4.30;;;10.10;99.90;;;;;;962795;148;27416;-78
2022/09/26 01:10:37;;;;;;;4.27;3.90;;;10.10;99.90;;;;;;961598;148;27375;-78
2022/09/26 01:13:03;;;;;;;3.57;3.27;;;10.00;99.90;;;;;;960289;148;27315;-78
2022/09/26 01:15:30;;;;;;;4.10;3.63;;;10.00;99.90;;;;;;961815;148;27369;-78
2022/09/26 01:17:57;;;;;;;4.40;3.47;;;10.00;99.90;;;;;;960897;148;27271;-78
2022/09/26 01:20:26;;;;;;;3.90;3.50;;;10.00;99.90;;;;;;962054;148;27716;-78
2022/09/26 01:23:10;;;;;;;4.80;3.37;;;9.90;99.90;;;;;;960775;148;27264;-78
2022/09/26 01:26:04;;;;;;;3.97;3.67;;;9.90;99.90;;;;;;964632;145;28566;-78
2022/09/26 01:28:34;;;;;;;3.97;3.63;;;9.90;99.90;;;;;;954177;148;27303;-78
2022/09/26 01:31:18;;;;;;;3.40;3.10;;;9.80;99.90;;;;;;959322;148;27302;-78
2022/09/26 01:33:45;;;;;;;3.63;3.33;;;9.80;99.90;;;;;;946301;148;27325;-78
2022/09/26 01:36:15;;;;;;;4.03;3.40;;;9.80;99.90;;;;;;959281;148;27493;-78
2022/09/26 01:38:50;;;;;;;3.63;3.30;;;9.80;99.90;;;;;;962112;148;27295;-78
2022/09/26 01:41:44;;;;;;;4.23;3.83;;;9.70;99.90;;;;;;960182;148;27804;-78
2022/09/26 01:44:22;;;;;;;4.80;4.40;;;9.70;99.90;;;;;;961806;148;27390;-78
2022/09/26 01:47:01;;;;;;;4.67;3.90;;;9.70;99.90;;;;;;962609;148;27825;-78
2022/09/26 01:49:39;;;;;;;7.00;4.13;;;9.70;99.90;;;;;;961262;148;27318;-78
2022/09/26 01:52:08;;;;;;;4.87;4.03;;;9.70;99.90;;;;;;961776;148;27279;-78
2022/09/26 01:54:44;;;;;;;7.40;4.10;;;9.70;99.90;;;;;;959302;148;27366;-78
2022/09/26 01:57:22;;;;;;;8.10;7.30;;;9.70;99.90;;;;;;955373;149;27341;-78
2022/09/26 01:59:49;;;;;;;11.53;8.63;;;9.70;99.90;;;;;;955763;148;27307;-79
2022/09/26 02:02:24;;;;;;;6.63;5.70;;;9.70;99.90;;;;;;955939;149;27392;-79
2022/09/26 02:04:48;;;;;;;5.13;4.67;;;9.70;99.90;;;;;;956092;148;27329;-79
2022/09/26 02:07:15;;;;;;;5.83;4.33;;;9.70;99.90;;;;;;957026;149;27905;-78
2022/09/26 02:09:43;;;;;;;5.10;4.10;;;9.60;99.90;;;;;;956108;149;27350;-78
2022/09/26 02:12:10;;;;;;;6.33;4.13;;;9.60;99.90;;;;;;956493;149;27332;-78
2022/09/26 02:14:37;;;;;;;6.07;4.17;;;9.60;99.90;;;;;;956321;149;27324;-78
2022/09/26 02:17:21;;;;;;;7.17;4.27;;;9.60;99.90;;;;;;956858;149;27343;-78
2022/09/26 02:20:06;;;;;;;5.73;4.57;;;9.60;99.90;;;;;;957373;148;27412;-79
2022/09/26 02:22:33;;;;;;;4.53;4.13;;;9.60;99.90;;;;;;956573;149;27271;-79
2022/09/26 02:24:59;;;;;;;5.63;4.30;;;9.60;99.90;;;;;;958331;146;27292;-79
2022/09/26 02:27:26;;;;;;;5.87;3.97;;;9.50;99.90;;;;;;957988;149;27295;-79
2022/09/26 02:29:52;;;;;;;6.77;4.30;;;9.50;99.90;;;;;;957676;149;27331;-78
2022/09/26 02:32:19;;;;;;;6.57;4.53;;;9.50;99.90;;;;;;957543;149;27377;-78
2022/09/26 02:34:46;;;;;;;4.80;4.10;;;9.50;99.90;;;;;;955215;149;27771;-78
2022/09/26 02:37:12;;;;;;;5.03;4.27;;;9.50;99.90;;;;;;957063;149;27427;-78
2022/09/26 02:39:39;;;;;;;5.33;3.90;;;9.50;99.90;;;;;;956469;149;27323;-78
2022/09/26 02:42:23;;;;;;;5.23;4.47;;;9.50;99.90;;;;;;958997;149;27272;-78
2022/09/26 02:44:50;;;;;;;7.27;4.80;;;9.50;99.90;;;;;;955313;148;27463;-76
2022/09/26 02:47:22;;;;;;;4.37;3.90;;;9.40;99.90;;;;;;955084;149;27347;-76
2022/09/26 02:50:01;;;;;;;6.43;5.17;;;9.40;99.90;;;;;;956604;149;27271;-76
2022/09/26 02:53:04;;;;;;;8.00;5.10;;;9.40;99.90;;;;;;957153;148;27361;-76
2022/09/26 02:55:37;;;;;;;5.73;5.00;;;9.40;99.90;;;;;;960247;147;27345;-76
2022/09/26 02:58:09;;;;;;;5.40;4.90;;;9.40;99.90;;;;;;966653;147;27242;-76
2022/09/26 03:00:52;;;;;;;4.63;4.10;;;9.40;99.90;;;;;;968249;147;27417;-76
2022/09/26 03:03:18;;;;;;;5.50;4.33;;;9.40;99.90;;;;;;966228;147;27329;-76
2022/09/26 03:05:44;;;;;;;5.80;4.80;;;9.40;99.90;;;;;;966627;147;27361;-75
2022/09/26 03:08:16;;;;;;;6.30;4.73;;;9.40;99.90;;;;;;967669;147;27350;-75
2022/09/26 03:10:43;;;;;;;5.63;4.83;;;9.40;99.90;;;;;;966285;147;27772;-77
2022/09/26 03:13:12;;;;;;;7.20;5.13;;;9.40;99.90;;;;;;966976;147;27357;-76
2022/09/26 03:15:39;;;;;;;8.60;5.50;;;9.40;99.90;;;;;;966891;147;27283;-76
2022/09/26 03:18:05;;;;;;;5.80;5.27;;;9.40;99.90;;;;;;966244;147;27274;-76
2022/09/26 03:20:32;;;;;;;5.60;5.10;;;9.40;99.90;;;;;;968132;147;27330;-76
2022/09/26 03:22:58;;;;;;;8.00;5.43;;;9.40;99.90;;;;;;967084;145;27281;-77
2022/09/26 03:25:25;;;;;;;7.83;5.17;;;9.30;99.90;;;;;;966803;147;27454;-76
2022/09/26 03:27:52;;;;;;;8.13;5.60;;;9.40;99.90;;;;;;967818;147;27442;-76
2022/09/26 03:30:18;;;;;;;5.60;5.00;;;9.30;99.90;;;;;;967122;147;27297;-75
2022/09/26 03:32:45;;;;;;;8.03;5.40;;;9.30;99.90;;;;;;967625;147;27310;-75
2022/09/26 03:35:11;;;;;;;6.00;4.97;;;9.30;99.90;;;;;;968309;147;27320;-77
2022/09/26 03:37:38;;;;;;;13.13;6.00;;;9.30;99.90;;;;;;968141;147;27439;-75
2022/09/26 03:40:05;;;;;;;7.07;5.07;;;9.30;99.90;;;;;;967621;147;28708;-75
2022/09/26 03:42:34;;;;;;;5.20;4.70;;;9.30;99.90;;;;;;965544;147;27265;-75
2022/09/26 03:45:01;;;;;;;5.17;4.67;;;9.30;99.90;;;;;;968998;147;27738;-76
2022/09/26 03:47:27;;;;;;;6.57;4.90;;;9.30;99.90;;;;;;965777;147;27271;-76
2022/09/26 03:49:54;;;;;;;7.00;4.97;;;9.30;99.90;;;;;;967649;147;27342;-77
2022/09/26 03:52:20;;;;;;;5.80;5.13;;;9.30;99.90;;;;;;966896;147;28022;-76
2022/09/26 03:54:47;;;;;;;5.60;5.20;;;9.30;99.90;;;;;;965998;147;27274;-75
2022/09/26 03:57:14;;;;;;;5.37;4.83;;;9.30;99.90;;;;;;958594;146;27337;-77
2022/09/26 03:59:40;;;;;;;6.97;4.63;;;9.40;99.90;;;;;;955651;148;27311;-75
2022/09/26 04:02:07;;;;;;;5.40;4.83;;;9.40;99.90;;;;;;955528;149;27358;-76
2022/09/26 04:04:33;;;;;;;4.97;4.57;;;9.40;99.90;;;;;;956468;149;27468;-76
2022/09/26 04:07:00;;;;;;;6.13;5.53;;;9.40;99.90;;;;;;956944;149;27376;-75
2022/09/26 04:09:26;;;;;;;5.03;4.50;;;9.40;99.90;;;;;;957203;149;27304;-76
2022/09/26 04:11:53;;;;;;;7.43;4.90;;;9.40;99.90;;;;;;956072;149;27329;-75
2022/09/26 04:14:20;;;;;;;5.10;4.70;;;9.40;99.90;;;;;;956638;147;27417;-77
2022/09/26 04:16:46;;;;;;;4.80;4.40;;;9.40;99.90;;;;;;957200;149;27337;-75
2022/09/26 04:19:13;;;;;;;4.70;4.30;;;9.40;99.90;;;;;;956008;149;27365;-76
2022/09/26 04:21:39;;;;;;;4.83;4.33;;;9.40;99.90;;;;;;957911;149;27348;-75
2022/09/26 04:24:06;;;;;;;5.43;4.93;;;9.40;99.90;;;;;;957217;148;27373;-76
2022/09/26 04:26:33;;;;;;;5.13;4.63;;;9.40;99.90;;;;;;957653;147;27335;-75
2022/09/26 04:28:59;;;;;;;5.87;5.23;;;9.40;99.90;;;;;;958104;149;27284;-76
2022/09/26 04:31:29;;;;;;;5.70;5.20;;;9.30;99.90;;;;;;958511;147;27320;-75
2022/09/26 04:33:54;;;;;;;5.63;5.13;;;9.40;99.90;;;;;;957956;149;27393;-76
2022/09/26 04:36:19;;;;;;;5.47;4.70;;;9.30;99.90;;;;;;956579;149;27911;-76
2022/09/26 04:38:46;;;;;;;5.47;4.97;;;9.30;99.90;;;;;;957000;148;27410;-77
2022/09/26 04:41:12;;;;;;;7.53;5.40;;;9.30;99.90;;;;;;956456;149;27351;-75
2022/09/26 04:43:39;;;;;;;5.30;4.77;;;9.30;99.90;;;;;;955197;149;27365;-76
2022/09/26 04:46:05;;;;;;;6.50;5.17;;;9.30;99.90;;;;;;956169;149;27326;-75
2022/09/26 04:48:32;;;;;;;5.73;5.20;;;9.30;99.90;;;;;;956693;149;27264;-76
2022/09/26 04:50:58;;;;;;;6.83;4.63;;;9.30;99.90;;;;;;957800;148;27263;-76
2022/09/26 04:53:25;;;;;;;8.47;4.73;;;9.30;99.90;;;;;;955474;149;27373;-76
2022/09/26 04:55:53;;;;;;;5.40;4.90;;;9.20;99.90;;;;;;958372;149;27335;-75
2022/09/26 04:58:18;;;;;;;5.80;4.90;;;9.20;99.90;;;;;;951135;149;27337;-75
2022/09/26 05:00:46;;;;;;;5.47;4.93;;;9.20;99.90;;;;;;951923;148;27257;-75
2022/09/26 05:03:14;;;;;;;5.10;4.70;;;9.20;99.90;;;;;;950774;149;27428;-76
2022/09/26 05:05:42;;;;;;;5.87;4.83;;;9.20;99.90;;;;;;951308;149;27466;-75
2022/09/26 05:08:08;;;;;;;5.37;4.87;;;9.10;99.90;;;;;;950993;149;27369;-75
2022/09/26 05:10:34;;;;;;;5.93;5.27;;;9.10;99.90;;;;;;950392;149;27280;-74
2022/09/26 05:13:02;;;;;;;9.13;4.70;;;9.10;99.90;;;;;;949986;149;27285;-75
2022/09/26 05:15:27;;;;;;;5.37;4.87;;;9.10;99.90;;;;;;948788;149;27378;-77
2022/09/26 05:17:57;;;;;;;6.43;5.63;;;9.10;99.90;;;;;;950580;149;27819;-75
2022/09/26 05:20:27;;;;;;;6.10;5.27;;;9.10;99.90;;;;;;950960;149;27861;-76
2022/09/26 05:22:50;;;;;;;6.37;5.77;;;9.10;99.90;;;;;;951476;149;27284;-75
2022/09/26 05:28:01;;;;;;;6.87;5.23;;;9.10;99.90;;;;;;951011;149;27346;-75
2022/09/26 05:30:30;;;;;;;5.67;5.10;;;9.10;99.90;;;;;;949803;149;27354;-76
2022/09/26 05:32:54;;;;;;;6.23;5.73;;;9.10;99.90;;;;;;951026;149;27327;-76
2022/09/26 05:35:21;;;;;;;6.70;5.97;;;9.20;99.90;;;;;;951136;149;27296;-75
2022/09/26 05:37:47;;;;;;;5.90;5.33;;;9.20;99.90;;;;;;950772;149;27384;-75
2022/09/26 05:43:02;;;;;;;9.53;5.70;;;9.30;99.90;;;;;;952564;149;27319;-76
2022/09/26 05:45:30;;;;;;;7.20;6.50;;;9.50;99.90;;;;;;951134;149;27371;-75
2022/09/26 05:47:55;;;;;;;6.20;5.60;;;9.60;99.90;;;;;;950591;149;27373;-75
2022/09/26 05:50:23;;;;;;;6.60;6.00;;;9.90;99.90;;;;;;950118;148;27308;-75
2022/09/26 05:52:49;;;;;;;7.43;6.63;;;10.10;99.90;;;;;;951393;149;27389;-75
2022/09/26 05:55:15;;;;;;;7.23;6.53;;;10.30;99.90;;;;;;951191;149;27406;-75
2022/09/26 05:57:50;;;;;;;7.33;6.10;;;10.50;99.90;;;;;;953063;149;27449;-76
2022/09/26 06:00:17;;;;;;;6.70;5.80;;;10.60;99.90;;;;;;958141;149;27372;-76
2022/09/26 06:02:43;;;;;;;6.83;6.13;;;10.80;99.90;;;;;;956916;149;27407;-74
2022/09/26 06:05:10;;;;;;;7.30;5.93;;;11.00;99.90;;;;;;957905;149;27407;-75
2022/09/26 06:07:36;;;;;;;6.57;5.97;;;11.20;99.90;;;;;;957523;149;27311;-75
2022/09/26 06:10:04;;;;;;;6.67;6.07;;;11.40;99.90;;;;;;956848;148;27347;-74
2022/09/26 06:12:30;;;;;;;6.07;5.47;;;11.70;99.90;;;;;;957043;149;27319;-75
2022/09/26 06:14:56;;;;;;;6.83;5.57;;;12.00;99.90;;;;;;958038;148;27314;-76
2022/09/26 06:17:23;;;;;;;6.07;5.43;;;12.20;99.90;;;;;;955354;149;27272;-75
2022/09/26 06:19:49;;;;;;;5.80;5.30;;;12.50;99.90;;;;;;957443;149;27385;-75
2022/09/26 06:22:16;;;;;;;5.70;4.90;;;12.70;99.90;;;;;;957604;148;27396;-77
2022/09/26 06:24:42;;;;;;;5.83;5.30;;;12.80;99.90;;;;;;957928;149;27329;-74
2022/09/26 06:27:09;;;;;;;6.40;4.70;;;12.90;99.90;;;;;;957252;148;27244;-76
2022/09/26 06:29:36;;;;;;;5.00;4.50;;;13.00;99.90;;;;;;956496;149;27380;-74
2022/09/26 06:32:02;;;;;;;5.00;4.47;;;13.00;99.90;;;;;;956141;149;27407;-75
2022/09/26 06:34:29;;;;;;;4.60;4.23;;;13.00;99.90;;;;;;957442;149;28371;-76
2022/09/26 06:36:55;;;;;;;5.00;4.60;;;13.00;99.90;;;;;;957642;149;27412;-75
2022/09/26 06:39:22;;;;;;;5.47;4.83;;;13.00;99.90;;;;;;956013;149;27345;-75
2022/09/26 06:41:49;;;;;;;5.23;4.47;;;13.00;99.90;;;;;;956486;149;27268;-75
2022/09/26 06:44:15;;;;;;;5.67;4.83;;;13.00;99.90;;;;;;958060;149;27354;-75
2022/09/26 06:46:42;;;;;;;5.73;4.77;;;13.10;99.90;;;;;;956287;149;27397;-75
2022/09/26 06:49:08;;;;;;;5.93;5.37;;;13.10;99.90;;;;;;957685;149;27327;-75
2022/09/26 06:51:36;;;;;;;6.00;5.40;;;13.30;99.90;;;;;;956750;149;27431;-74
2022/09/26 06:54:02;;;;;;;5.27;4.80;;;13.40;99.90;;;;;;956402;148;27368;-75
2022/09/26 06:56:28;;;;;;;8.37;5.47;;;13.60;99.90;;;;;;956466;148;27349;-75
2022/09/26 06:58:55;;;;;;;5.33;4.90;;;13.80;99.90;;;;;;961343;146;27295;-75
2022/09/26 07:01:21;;;;;;;5.50;4.97;;;13.90;99.90;;;;;;966222;147;27345;-77
2022/09/26 07:03:48;;;;;;;5.47;4.90;;;14.00;99.90;;;;;;968249;147;27337;-75
2022/09/26 07:06:16;;;;;;;5.97;5.37;;;14.10;99.90;;;;;;967152;147;27298;-74
2022/09/26 07:08:41;;;;;;;6.83;5.20;;;14.20;99.90;;;;;;967995;147;27318;-75
2022/09/26 07:11:08;;;;;;;6.00;5.10;;;14.20;99.90;;;;;;967888;147;27380;-75
2022/09/26 07:13:35;;;;;;;5.20;4.70;;;14.20;99.90;;;;;;966302;145;27301;-76
2022/09/26 07:16:01;;;;;;;5.77;4.53;;;14.30;99.90;;;;;;966815;147;27356;-75
2022/09/26 07:18:28;;;;;;;5.90;5.30;;;14.40;99.90;;;;;;949298;147;27392;-75
2022/09/26 07:20:54;;;;;;;7.40;5.10;;;14.60;99.90;;;;;;948135;147;27429;-75
2022/09/26 07:23:21;;;;;;;4.97;4.58;;;15.00;99.90;;;;;;947032;148;27367;-74
2022/09/26 07:25:47;;;;;;;4.95;4.53;;;15.60;99.90;;;;;;964361;148;27659;-76
2022/09/26 07:28:14;;;;;;;4.08;3.77;;;16.30;99.90;;;;;;963442;148;27342;-77
2022/09/26 07:30:40;;;;;;;4.12;3.80;;;17.10;99.90;;;;;;965150;148;27407;-75
2022/09/26 07:33:07;;;;;;;5.00;4.20;;;18.00;99.90;;;;;;953402;147;27412;-75
2022/09/26 07:35:34;;;;;;;3.80;3.50;;;18.80;99.90;;;;;;956120;148;27403;-75
2022/09/26 07:38:00;;;;;;;3.20;2.90;;;19.60;99.90;;;;;;956171;146;27331;-76
2022/09/26 07:40:27;;;;;;;4.03;3.55;;;20.50;99.90;;;;;;968390;145;27423;-77
2022/09/26 07:42:53;;;;;;;3.15;2.92;;;21.20;99.90;;;;;;962893;147;27331;-75
2022/09/26 07:50:09;;;;;;;4.10;2.87;;;21.90;99.90;;;;;;952346;147;27341;-77
2022/09/26 07:50:31;;;;;;;4.75;2.90;;;23.40;99.90;;;;;;956327;147;27435;-76
2022/09/26 07:52:58;;;;;;;2.52;2.33;;;24.20;99.90;;;;;;967267;145;27968;-76
2022/09/26 07:55:24;;;;;;;2.65;2.40;;;24.90;99.90;;;;;;951018;147;27462;-76
2022/09/26 07:57:51;;;;;;;2.98;2.20;;;25.60;99.90;;;;;;955297;148;27868;-76
2022/09/26 08:00:17;;;;;;;2.62;2.37;;;26.20;99.90;;;;;;949935;147;27453;-76
2022/09/26 08:02:45;;;;;;;2.65;2.22;;;26.80;99.90;;;;;;944624;149;27863;-76
2022/09/26 08:05:11;;;;;;;2.95;2.25;;;27.40;99.90;;;;;;942793;148;27382;-77
2022/09/26 08:07:37;;;;;;;3.20;2.05;;;27.90;99.20;;;;;;953722;148;27320;-78
2022/09/26 08:10:04;;;;;;;2.35;2.15;;;28.40;95.50;;;;;;959686;146;27370;-76
2022/09/26 08:12:36;;;;;;;2.27;2.05;;;28.90;94.60;;;;;;942912;149;27286;-77
2022/09/26 08:15:05;;;;;;;6.42;2.22;;;29.40;92.00;;;;;;950721;148;27439;-76
2022/09/26 08:17:32;;;;;;;3.30;2.10;;;29.80;90.10;;;;;;958798;146;27309;-77
2022/09/26 08:19:56;;;;;;;1.60;1.50;;;30.10;86.80;;;;;;957330;146;26292;-79
2022/09/26 08:22:22;;;;;;;2.37;1.60;;;30.50;83.20;;;;;;958546;146;27401;-77
2022/09/26 08:24:49;;;;;;;3.58;1.87;;;30.80;80.20;;;;;;960041;145;27284;-77
2022/09/26 08:27:16;;;;;;;2.47;1.42;;;31.00;78.40;;;;;;966006;145;27343;-76
2022/09/26 08:29:47;;;;;;;4.42;1.47;;;31.20;75.30;;;;;;966022;145;27240;-77
2022/09/26 08:32:09;;;;;;;1.80;1.35;;;31.40;72.30;;;;;;966435;145;27323;-78
2022/09/26 08:34:35;;;;;;;1.30;1.20;;;31.50;70.00;;;;;;949355;149;27434;-76
2022/09/26 08:37:02;;;;;;;1.47;1.37;;;31.50;68.60;;;;;;959387;145;27283;-76
2022/09/26 08:39:29;;;;;;;1.05;1.00;;;31.50;67.00;;;;;;949445;149;27368;-76
2022/09/26 08:42:01;;;;;;;1.85;1.00;;;31.40;65.10;;;;;;961297;145;27424;-75
2022/09/26 08:44:31;;;;;;;2.72;1.32;;;31.30;64.20;;;;;;960055;145;27344;-78
2022/09/26 08:47:01;;;;;;;3.33;1.00;;;31.00;62.60;;;;;;959563;145;27714;-77
2022/09/26 08:49:40;;;;;;;1.20;1.10;;;30.60;60.50;;;;;;963378;145;27375;-75
2022/09/26 08:52:23;;;;;;;1.75;1.10;;;30.00;60.20;;;;;;943822;149;27862;-77
2022/09/26 08:54:50;;;;;;;1.05;0.90;;;29.50;60.00;;;;;;962610;148;27305;-76
2022/09/26 08:57:16;;;;;;;1.30;0.90;;;28.70;60.00;;;;;;962367;148;27327;-77
2022/09/26 08:59:43;;;;;;;3.35;1.20;;;28.10;59.90;;;;;;962692;147;27423;-75
2022/09/26 09:02:25;;;;;;;0.90;0.90;;;27.60;59.90;;;;;;964568;148;28696;-75
2022/09/26 09:04:51;;;;;;;0.88;0.75;;;27.00;60.50;;;;;;942812;147;27469;-75
2022/09/26 09:07:23;;;;;;;1.17;1.07;;;26.40;60.70;;;;;;965835;145;27275;-75
2022/09/26 09:09:50;;;;;;;0.98;0.85;;;25.90;60.90;;;;;;947875;147;27349;-77
2022/09/26 09:12:23;;;;;;;1.80;1.10;;;25.40;61.10;;;;;;959173;145;27345;-75
2022/09/26 09:14:55;;;;;;;2.40;1.25;;;25.10;62.20;;;;;;949395;147;27323;-76
2022/09/26 09:17:39;;;;;;;1.25;1.15;;;24.70;62.60;;;;;;962666;147;27275;-75
2022/09/26 09:20:15;;;;;;;0.82;0.80;;;24.50;63.70;;;;;;961602;147;27382;-76
2022/09/26 09:22:45;;;;;;;0.72;0.72;;;24.20;64.00;;;;;;967508;145;27338;-75
2022/09/26 09:25:35;;;;;;;1.47;0.85;;;24.00;64.00;;;;;;966006;147;27333;-75
2022/09/26 09:28:16;;;;;;;3.77;1.20;;;23.70;64.10;;;;;;967047;145;27425;-75
2022/09/26 09:31:01;;;;;;;1.40;0.98;;;23.40;64.00;;;;;;965934;145;27308;-75
2022/09/26 09:33:30;;;;;;;1.27;1.05;;;23.10;63.90;;;;;;966140;145;27426;-75
2022/09/26 09:36:06;;;;;;;1.02;1.00;;;22.70;64.40;;;;;;965905;145;27338;-76
2022/09/26 09:38:32;;;;;;;4.00;1.02;;;22.50;65.00;;;;;;967165;147;27369;-75
2022/09/26 09:41:02;;;;;;;1.12;0.90;;;22.30;66.00;;;;;;966512;145;27315;-76
2022/09/26 09:43:31;;;;;;;0.98;0.88;;;22.10;66.00;;;;;;967764;145;27311;-76
2022/09/26 09:46:01;;;;;;;3.45;1.45;;;22.00;65.70;;;;;;967828;145;27341;-75
2022/09/26 09:48:27;;;;;;;1.10;1.10;;;21.80;66.40;;;;;;964895;147;27441;-76
2022/09/26 09:51:13;;;;;;;1.60;1.22;;;21.70;66.00;;;;;;965872;145;27314;-75
2022/09/26 09:53:45;;;;;;;1.52;1.40;;;21.50;66.00;;;;;;966523;147;27334;-74
2022/09/26 09:56:29;;;;;;;0.93;0.88;;;21.40;66.40;;;;;;964564;147;27309;-77
2022/09/26 09:59:20;;;;;;;2.12;1.40;;;21.20;66.70;;;;;;965277;147;27429;-79
2022/09/26 10:01:47;;;;;;;2.15;1.32;;;21.20;68.70;;;;;;948239;147;27531;-76
2022/09/26 10:04:22;;;;;;;1.37;1.15;;;21.20;69.80;;;;;;944123;149;27339;-76
2022/09/26 10:06:49;;;;;;;1.95;1.05;;;21.30;70.10;;;;;;943684;149;27381;-76
2022/09/26 10:09:17;;;;;;;1.77;1.40;;;21.40;69.80;;;;;;948665;149;27379;-77
2022/09/26 10:11:44;;;;;;;2.25;1.32;;;21.60;68.40;;;;;;937166;149;27383;-78
2022/09/26 10:14:12;;;;;;;1.52;1.07;;;21.60;67.50;;;;;;946223;149;28017;-75
2022/09/26 10:16:37;;;;;;;2.35;1.50;;;21.50;67.00;;;;;;949121;149;27306;-76
2022/09/26 10:19:07;;;;;;;1.30;1.20;;;21.50;66.10;;;;;;947018;149;27288;-76
2022/09/26 10:21:38;;;;;;;1.40;1.30;;;21.50;66.00;;;;;;947976;149;27470;-76
2022/09/26 10:24:05;;;;;;;2.40;1.40;;;21.40;66.50;;;;;;949059;149;27462;-75
2022/09/26 10:26:35;;;;;;;1.37;1.27;;;21.30;66.20;;;;;;949072;149;27394;-77
2022/09/26 10:29:01;;;;;;;1.70;1.35;;;21.30;66.00;;;;;;947864;149;27475;-77
2022/09/26 10:31:37;;;;;;;2.45;1.12;;;21.30;66.80;;;;;;946700;149;27357;-75
2022/09/26 10:34:04;;;;;;;4.00;1.10;;;21.20;67.00;;;;;;946623;149;27467;-75
2022/09/26 10:36:36;;;;;;;0.85;0.85;;;21.20;67.30;;;;;;947144;149;27407;-76
2022/09/26 10:42:03;;;;;;;1.17;1.10;;;21.20;66.80;;;;;;947010;149;27470;-75
2022/09/26 10:44:35;;;;;;;3.10;1.37;;;21.20;66.00;;;;;;945162;149;27526;-75
2022/09/26 10:46:59;;;;;;;1.75;1.12;;;21.20;66.70;;;;;;946710;149;27375;-75
2022/09/26 10:49:25;;;;;;;1.57;1.12;;;21.20;66.50;;;;;;947475;149;27423;-75
2022/09/26 10:52:00;;;;;;;2.58;1.45;;;21.20;66.40;;;;;;944870;149;27416;-75
2022/09/26 10:54:28;;;;;;;2.47;1.20;;;21.10;65.80;;;;;;937476;149;27375;-76
2022/09/26 10:56:56;;;;;;;2.05;0.95;;;21.00;65.40;;;;;;944184;149;27359;-76
2022/09/26 10:59:20;;;;;;;1.57;1.00;;;20.90;66.30;;;;;;947838;149;27445;-76
2022/09/26 11:01:49;;;;;;;1.32;1.22;;;20.90;65.90;;;;;;953736;146;28083;-75
2022/09/26 11:05:55;;;;;;;2.90;1.47;;;20.80;66.20;;;;;;957536;146;27376;-76
2022/09/26 11:06:45;;;;;;;3.22;1.10;;;20.70;66.70;;;;;;956350;146;27400;-76
2022/09/26 11:09:10;;;;;;;2.62;1.32;;;20.80;67.30;;;;;;956478;146;27358;-77
2022/09/26 11:11:38;;;;;;;1.20;0.80;;;20.70;67.20;;;;;;955028;147;27339;-75
2022/09/26 11:14:06;;;;;;;1.90;1.42;;;20.70;66.90;;;;;;956901;147;27297;-74
2022/09/26 11:16:38;;;;;;;1.10;1.10;;;20.80;67.10;;;;;;956865;146;27760;-74
2022/09/26 11:19:20;;;;;;;2.58;1.00;;;20.80;66.40;;;;;;955465;147;27395;-77
2022/09/26 11:22:01;;;;;;;1.50;1.00;;;20.80;66.70;;;;;;954738;146;27325;-76
2022/09/26 11:24:36;;;;;;;1.42;1.30;;;20.80;66.70;;;;;;956091;147;27507;-75
2022/09/26 11:27:18;;;;;;;1.15;0.95;;;20.90;65.40;;;;;;957007;147;27327;-75
2022/09/26 11:29:57;;;;;;;2.95;1.17;;;20.90;65.20;;;;;;959123;147;27307;-74
2022/09/26 11:32:23;;;;;;;4.22;1.25;;;20.80;64.20;;;;;;954205;147;27243;-76
2022/09/26 11:34:53;;;;;;;1.55;1.40;;;20.70;63.70;;;;;;956308;147;27343;-75
2022/09/26 11:37:31;;;;;;;1.40;1.30;;;20.80;64.20;;;;;;957838;146;27360;-75
2022/09/26 11:40:04;;;;;;;1.85;1.20;;;20.70;65.40;;;;;;957604;147;27240;-75
2022/09/26 11:42:53;;;;;;;2.10;1.20;;;20.70;65.80;;;;;;956166;146;27411;-74
2022/09/26 11:45:34;;;;;;;2.10;1.42;;;20.70;66.00;;;;;;955404;146;27343;-75
2022/09/26 11:48:21;;;;;;;1.12;1.02;;;20.80;65.90;;;;;;956650;147;27420;-76
2022/09/26 11:50:50;;;;;;;1.30;1.20;;;20.80;64.60;;;;;;940724;147;27329;-75
2022/09/26 11:53:41;;;;;;;1.30;1.00;;;20.90;64.90;;;;;;955860;147;27434;-74
2022/09/26 11:56:28;;;;;;;0.70;0.70;;;20.80;64.70;;;;;;955797;147;27308;-74
2022/09/26 11:58:58;;;;;;;1.42;1.10;;;20.80;64.60;;;;;;956059;147;27295;-74
2022/09/26 12:01:26;;;;;;;1.10;1.00;;;20.70;64.40;;;;;;952203;147;27364;-75
2022/09/26 12:04:07;;;;;;;2.58;1.20;;;20.70;64.30;;;;;;945123;149;27758;-76
2022/09/26 12:06:54;;;;;;;1.52;1.05;;;20.60;63.80;;;;;;921355;151;27497;-75
2022/09/26 12:09:46;;;;;;;1.10;0.88;;;20.50;64.00;;;;;;921055;153;27430;-77
2022/09/26 12:12:27;;;;;;;1.25;1.15;;;20.50;65.10;;;;;;938947;149;28011;-75
2022/09/26 12:15:01;;;;;;;0.95;0.88;;;20.40;65.20;;;;;;933699;150;27782;-76
2022/09/26 12:17:39;;;;;;;1.67;0.68;;;20.30;65.40;;;;;;940814;149;27685;-75
2022/09/26 12:20:27;;;;;;;1.75;1.05;;;20.30;65.60;;;;;;926470;152;27422;-75
2022/09/26 12:23:00;;;;;;;1.25;1.10;;;20.30;65.40;;;;;;946647;149;27306;-75
2022/09/26 12:25:35;;;;;;;1.07;0.95;;;20.30;65.80;;;;;;939356;149;27876;-76
2022/09/26 12:28:09;;;;;;;1.02;1.02;;;20.40;66.10;;;;;;939150;149;27343;-76
2022/09/26 12:30:55;;;;;;;0.90;0.85;;;20.50;65.90;;;;;;931229;149;27375;-74
2022/09/26 12:33:39;;;;;;;1.12;0.98;;;20.50;65.50;;;;;;892625;155;27494;-76
2022/09/26 12:36:06;;;;;;;0.98;0.98;;;20.60;65.50;;;;;;913852;151;27367;-77
2022/09/26 12:38:51;;;;;;;1.10;0.72;;;20.60;65.60;;;;;;946415;149;27427;-75
2022/09/26 12:41:42;;;;;;;2.52;1.17;;;20.70;65.80;;;;;;947955;149;27357;-76
2022/09/26 12:44:30;;;;;;;1.30;0.93;;;20.70;65.20;;;;;;944749;149;27506;-77
2022/09/26 12:47:03;;;;;;;0.98;0.98;;;20.80;64.90;;;;;;946596;149;27429;-75
2022/09/26 12:49:30;;;;;;;0.62;0.62;;;20.90;64.60;;;;;;946827;149;27401;-76
2022/09/26 12:52:07;;;;;;;3.20;1.15;;;20.90;64.40;;;;;;948123;149;27317;-76
2022/09/26 12:54:47;;;;;;;1.37;1.00;;;20.90;64.50;;;;;;927398;149;27643;-76
2022/09/26 12:57:31;;;;;;;1.17;0.95;;;21.00;64.50;;;;;;917929;149;27470;-76
2022/09/26 13:00:09;;;;;;;2.08;1.22;;;21.00;64.30;;;;;;946203;149;27385;-76
2022/09/26 13:02:38;;;;;;;1.40;1.00;;;21.00;63.70;;;;;;950431;149;27359;-76
2022/09/26 13:05:17;;;;;;;1.57;1.12;;;21.00;63.80;;;;;;954694;149;27402;-76
2022/09/26 13:07:46;;;;;;;1.27;1.17;;;20.90;63.50;;;;;;955771;149;27420;-76
2022/09/26 13:10:31;;;;;;;1.15;1.12;;;20.90;63.20;;;;;;955438;149;27295;-76
2022/09/26 13:13:16;;;;;;;2.27;1.30;;;20.90;62.80;;;;;;955070;149;27406;-75
2022/09/26 13:16:10;;;;;;;2.90;1.90;;;20.80;62.70;;;;;;957017;149;27403;-76
2022/09/26 13:18:49;;;;;;;2.35;0.90;;;20.80;63.10;;;;;;954583;149;27314;-76